GTYEY EDDG-EDLN
Flight info
| Callsign | GTYEY |
|---|---|
| Flight time | 1h 14m |
| Altitude | 6000 |
| Route | SUVOX1E SUVOX Z850 VEBAK VEBAK2J |
| Aircraft | C172/L-SFG/C |
Departure
| Time | 2026-05-05 11:24 |
|---|---|
| Airport | Münster Osnabrück Airport (EDDG) |
Arrival
| Time | 2026-05-05 12:38 |
|---|---|
| Airport | Mönchengladbach Airport (EDLN) |
| Time | Latitude | Longitude | Altitude | Speed | Heading |
|---|---|---|---|---|---|
| 2026-05-05 10:05 | 52.13157 | 7.68235 | 160 ft | 0 kts | 271° |
| 2026-05-05 11:17 | 52.13159 | 7.68223 | 160 ft | 3 kts | 301° |
| 2026-05-05 11:17 | 52.13171 | 7.68212 | 160 ft | 0 kts | 57° |
| 2026-05-05 11:18 | 52.13178 | 7.68245 | 160 ft | 6 kts | 75° |
| 2026-05-05 11:18 | 52.13208 | 7.68344 | 161 ft | 12 kts | 7° |
| 2026-05-05 11:18 | 52.13287 | 7.68304 | 161 ft | 13 kts | 342° |
| 2026-05-05 11:18 | 52.13315 | 7.68288 | 160 ft | 0 kts | 340° |
| 2026-05-05 11:21 | 52.13317 | 7.68287 | 160 ft | 2 kts | 339° |
| 2026-05-05 11:21 | 52.13375 | 7.68259 | 160 ft | 13 kts | 356° |
| 2026-05-05 11:21 | 52.13435 | 7.68349 | 160 ft | 0 kts | 68° |
| 2026-05-05 11:22 | 52.13436 | 7.68349 | 160 ft | 0 kts | 67° |
| 2026-05-05 11:22 | 52.13436 | 7.68350 | 160 ft | 0 kts | 76° |
| 2026-05-05 11:22 | 52.13437 | 7.68355 | 160 ft | 4 kts | 72° |
| 2026-05-05 11:22 | 52.13495 | 7.68639 | 161 ft | 47 kts | 71° |
| 2026-05-05 11:23 | 52.13574 | 7.69243 | 265 ft | 56 kts | 73° |
| 2026-05-05 11:23 | 52.13689 | 7.69844 | 393 ft | 57 kts | 55° |
| 2026-05-05 11:23 | 52.13898 | 7.70443 | 497 ft | 65 kts | 54° |
| 2026-05-05 11:23 | 52.14079 | 7.71138 | 616 ft | 69 kts | 58° |
| 2026-05-05 11:24 | 52.14330 | 7.71801 | 734 ft | 76 kts | 56° |
| 2026-05-05 11:24 | 52.14516 | 7.72591 | 918 ft | 75 kts | 65° |
| 2026-05-05 11:24 | 52.14690 | 7.73367 | 1114 ft | 71 kts | 59° |
| 2026-05-05 11:24 | 52.14857 | 7.74113 | 1293 ft | 70 kts | 65° |
| 2026-05-05 11:25 | 52.15036 | 7.74841 | 1459 ft | 70 kts | 60° |
| 2026-05-05 11:25 | 52.15207 | 7.75566 | 1631 ft | 67 kts | 60° |
| 2026-05-05 11:25 | 52.15409 | 7.76275 | 1766 ft | 69 kts | 54° |
| 2026-05-05 11:25 | 52.15616 | 7.76955 | 1933 ft | 70 kts | 64° |
| 2026-05-05 11:26 | 52.15760 | 7.77728 | 2100 ft | 68 kts | 60° |
| 2026-05-05 11:26 | 52.15937 | 7.78469 | 2192 ft | 73 kts | 61° |
| 2026-05-05 11:26 | 52.16100 | 7.79249 | 2329 ft | 73 kts | 69° |
| 2026-05-05 11:26 | 52.16180 | 7.80100 | 2445 ft | 76 kts | 79° |
| 2026-05-05 11:27 | 52.16140 | 7.80967 | 2546 ft | 82 kts | 98° |
| 2026-05-05 11:27 | 52.15879 | 7.81792 | 2689 ft | 82 kts | 121° |
| 2026-05-05 11:27 | 52.15445 | 7.82467 | 2806 ft | 85 kts | 138° |
| 2026-05-05 11:27 | 52.14859 | 7.82820 | 2856 ft | 92 kts | 147° |
| 2026-05-05 11:28 | 52.14317 | 7.83291 | 2966 ft | 94 kts | 150° |
| 2026-05-05 11:28 | 52.13667 | 7.83931 | 2841 ft | 116 kts | 140° |
| 2026-05-05 11:28 | 52.13024 | 7.84620 | 2980 ft | 108 kts | 148° |
| 2026-05-05 11:28 | 52.12356 | 7.85153 | 3071 ft | 105 kts | 152° |
| 2026-05-05 11:29 | 52.11705 | 7.85656 | 3180 ft | 102 kts | 152° |
| 2026-05-05 11:29 | 52.11077 | 7.86149 | 3273 ft | 99 kts | 151° |
| 2026-05-05 11:29 | 52.10457 | 7.86609 | 3366 ft | 98 kts | 155° |
| 2026-05-05 11:29 | 52.09825 | 7.87022 | 3461 ft | 97 kts | 161° |
| 2026-05-05 11:30 | 52.09159 | 7.87096 | 3551 ft | 97 kts | 188° |
| 2026-05-05 11:30 | 52.08538 | 7.86689 | 3642 ft | 95 kts | 216° |
| 2026-05-05 11:30 | 52.08084 | 7.85942 | 3730 ft | 94 kts | 240° |
| 2026-05-05 11:30 | 52.07809 | 7.84985 | 3831 ft | 92 kts | 250° |
| 2026-05-05 11:31 | 52.07597 | 7.84013 | 3929 ft | 91 kts | 251° |
| 2026-05-05 11:31 | 52.07390 | 7.83040 | 4027 ft | 90 kts | 252° |
| 2026-05-05 11:31 | 52.07183 | 7.82070 | 4126 ft | 90 kts | 252° |
| 2026-05-05 11:31 | 52.06985 | 7.81120 | 4224 ft | 89 kts | 252° |
| 2026-05-05 11:32 | 52.06786 | 7.80167 | 4326 ft | 88 kts | 251° |
| 2026-05-05 11:32 | 52.06592 | 7.79236 | 4448 ft | 85 kts | 251° |
| 2026-05-05 11:32 | 52.06410 | 7.78343 | 4568 ft | 82 kts | 252° |
| 2026-05-05 11:32 | 52.06233 | 7.77472 | 4688 ft | 79 kts | 251° |
| 2026-05-05 11:33 | 52.06068 | 7.76638 | 4805 ft | 77 kts | 251° |
| 2026-05-05 11:33 | 52.05909 | 7.75834 | 4919 ft | 70 kts | 251° |
| 2026-05-05 11:33 | 52.05765 | 7.75120 | 5021 ft | 63 kts | 248° |
| 2026-05-05 11:33 | 52.05545 | 7.74413 | 5006 ft | 81 kts | 243° |
| 2026-05-05 11:34 | 52.05300 | 7.73515 | 5045 ft | 87 kts | 250° |
| 2026-05-05 11:34 | 52.05093 | 7.72510 | 5057 ft | 96 kts | 252° |
| 2026-05-05 11:34 | 52.04888 | 7.71464 | 5132 ft | 96 kts | 252° |
| 2026-05-05 11:34 | 52.04693 | 7.70435 | 5209 ft | 96 kts | 252° |
| 2026-05-05 11:35 | 52.04500 | 7.69402 | 5284 ft | 96 kts | 253° |
| 2026-05-05 11:35 | 52.04307 | 7.68368 | 5358 ft | 96 kts | 253° |
| 2026-05-05 11:35 | 52.04117 | 7.67331 | 5435 ft | 95 kts | 253° |
| 2026-05-05 11:35 | 52.03925 | 7.66300 | 5511 ft | 95 kts | 252° |
| 2026-05-05 11:36 | 52.03720 | 7.65277 | 5587 ft | 95 kts | 251° |
| 2026-05-05 11:36 | 52.03508 | 7.64258 | 5663 ft | 95 kts | 250° |
| 2026-05-05 11:36 | 52.03295 | 7.63253 | 5736 ft | 95 kts | 250° |
| 2026-05-05 11:36 | 52.03077 | 7.62242 | 5808 ft | 94 kts | 249° |
| 2026-05-05 11:37 | 52.02860 | 7.61235 | 5881 ft | 94 kts | 249° |
| 2026-05-05 11:37 | 52.02639 | 7.60221 | 5956 ft | 94 kts | 249° |
| 2026-05-05 11:37 | 52.02423 | 7.59228 | 6030 ft | 94 kts | 249° |
| 2026-05-05 11:37 | 52.02205 | 7.58226 | 6096 ft | 95 kts | 249° |
| 2026-05-05 11:38 | 52.01994 | 7.57235 | 6038 ft | 89 kts | 250° |
| 2026-05-05 11:38 | 52.01797 | 7.56313 | 6006 ft | 85 kts | 249° |
| 2026-05-05 11:38 | 52.01597 | 7.55403 | 6000 ft | 85 kts | 250° |
| 2026-05-05 11:38 | 52.01395 | 7.54455 | 5927 ft | 88 kts | 250° |
| 2026-05-05 11:39 | 52.01194 | 7.53526 | 5941 ft | 85 kts | 250° |
| 2026-05-05 11:39 | 52.01005 | 7.52630 | 5943 ft | 82 kts | 250° |
| 2026-05-05 11:39 | 52.00820 | 7.51769 | 5920 ft | 79 kts | 250° |
| 2026-05-05 11:39 | 52.00641 | 7.50933 | 5888 ft | 76 kts | 249° |
| 2026-05-05 11:40 | 52.00462 | 7.50127 | 5891 ft | 76 kts | 247° |
| 2026-05-05 11:40 | 52.00279 | 7.49308 | 5899 ft | 79 kts | 248° |
| 2026-05-05 11:40 | 52.00088 | 7.48448 | 5899 ft | 83 kts | 248° |
| 2026-05-05 11:40 | 51.99884 | 7.47527 | 5902 ft | 89 kts | 249° |
| 2026-05-05 11:41 | 51.99671 | 7.46553 | 5901 ft | 94 kts | 249° |
| 2026-05-05 11:41 | 51.99448 | 7.45526 | 5902 ft | 99 kts | 249° |
| 2026-05-05 11:41 | 51.99215 | 7.44451 | 5899 ft | 103 kts | 249° |
| 2026-05-05 11:41 | 51.98970 | 7.43328 | 5895 ft | 106 kts | 249° |
| 2026-05-05 11:42 | 51.98721 | 7.42189 | 5897 ft | 107 kts | 250° |
| 2026-05-05 11:42 | 51.98470 | 7.41035 | 5896 ft | 108 kts | 250° |
| 2026-05-05 11:42 | 51.98218 | 7.39886 | 5889 ft | 107 kts | 250° |
| 2026-05-05 11:42 | 51.97967 | 7.38745 | 5895 ft | 107 kts | 249° |
| 2026-05-05 11:43 | 51.97717 | 7.37613 | 5900 ft | 107 kts | 250° |
| 2026-05-05 11:43 | 51.97467 | 7.36479 | 5896 ft | 107 kts | 249° |
| 2026-05-05 11:43 | 51.97218 | 7.35349 | 5894 ft | 105 kts | 249° |
| 2026-05-05 11:43 | 51.96977 | 7.34251 | 5886 ft | 102 kts | 248° |
| 2026-05-05 11:44 | 51.96738 | 7.33171 | 5884 ft | 101 kts | 248° |
| 2026-05-05 11:44 | 51.96499 | 7.32095 | 5883 ft | 100 kts | 248° |
| 2026-05-05 11:44 | 51.96262 | 7.31029 | 5886 ft | 99 kts | 248° |
| 2026-05-05 11:44 | 51.96028 | 7.29976 | 5890 ft | 100 kts | 248° |
| 2026-05-05 11:45 | 51.95794 | 7.28915 | 5895 ft | 100 kts | 249° |
| 2026-05-05 11:45 | 51.95750 | 7.27802 | 5897 ft | 99 kts | 273° |
| 2026-05-05 11:45 | 51.95826 | 7.26703 | 5943 ft | 97 kts | 275° |
| 2026-05-05 11:45 | 51.95906 | 7.25605 | 6026 ft | 97 kts | 275° |
| 2026-05-05 11:46 | 51.95987 | 7.24522 | 6140 ft | 96 kts | 274° |
| 2026-05-05 11:46 | 51.96066 | 7.23461 | 6258 ft | 93 kts | 274° |
| 2026-05-05 11:46 | 51.96143 | 7.22428 | 6358 ft | 93 kts | 274° |
| 2026-05-05 11:46 | 51.96222 | 7.21377 | 6456 ft | 93 kts | 274° |
| 2026-05-05 11:47 | 51.96300 | 7.20338 | 6556 ft | 93 kts | 274° |
| 2026-05-05 11:47 | 51.96379 | 7.19288 | 6657 ft | 93 kts | 274° |
| 2026-05-05 11:47 | 51.96457 | 7.18261 | 6747 ft | 93 kts | 274° |
| 2026-05-05 11:47 | 51.96536 | 7.17223 | 6841 ft | 92 kts | 274° |
| 2026-05-05 11:48 | 51.96707 | 7.15026 | 6862 ft | 104 kts | 275° |
| 2026-05-05 11:48 | 51.96801 | 7.13833 | 6862 ft | 107 kts | 275° |
| 2026-05-05 11:48 | 51.96896 | 7.12629 | 6863 ft | 110 kts | 275° |
| 2026-05-05 11:49 | 51.96969 | 7.11389 | 6863 ft | 110 kts | 263° |
| 2026-05-05 11:49 | 51.96682 | 7.10261 | 6863 ft | 108 kts | 237° |
| 2026-05-05 11:49 | 51.96276 | 7.09269 | 6864 ft | 105 kts | 231° |
| 2026-05-05 11:49 | 51.95848 | 7.08321 | 6864 ft | 101 kts | 232° |
| 2026-05-05 11:50 | 51.95434 | 7.07426 | 6866 ft | 98 kts | 231° |
| 2026-05-05 11:50 | 51.95020 | 7.06546 | 6867 ft | 97 kts | 230° |
| 2026-05-05 11:50 | 51.94606 | 7.05678 | 6862 ft | 97 kts | 230° |
| 2026-05-05 11:50 | 51.94200 | 7.04828 | 6850 ft | 95 kts | 230° |
| 2026-05-05 11:51 | 51.93791 | 7.03975 | 6856 ft | 95 kts | 229° |
| 2026-05-05 11:51 | 51.93381 | 7.03120 | 6856 ft | 95 kts | 230° |
| 2026-05-05 11:51 | 51.92973 | 7.02270 | 6866 ft | 96 kts | 230° |
| 2026-05-05 11:51 | 51.92561 | 7.01412 | 6871 ft | 97 kts | 230° |
| 2026-05-05 11:52 | 51.92145 | 7.00542 | 6870 ft | 97 kts | 230° |
| 2026-05-05 11:52 | 51.91732 | 6.99671 | 6872 ft | 97 kts | 230° |
| 2026-05-05 11:52 | 51.91322 | 6.98796 | 6869 ft | 98 kts | 230° |
| 2026-05-05 11:52 | 51.90911 | 6.97907 | 6866 ft | 98 kts | 231° |
| 2026-05-05 11:53 | 51.90505 | 6.97023 | 6863 ft | 98 kts | 231° |
| 2026-05-05 11:53 | 51.90100 | 6.96132 | 6859 ft | 97 kts | 232° |
| 2026-05-05 11:53 | 51.89697 | 6.95252 | 6861 ft | 97 kts | 231° |
| 2026-05-05 11:53 | 51.89292 | 6.94376 | 6863 ft | 97 kts | 230° |
| 2026-05-05 11:54 | 51.88877 | 6.93487 | 6865 ft | 98 kts | 231° |
| 2026-05-05 11:54 | 51.88468 | 6.92617 | 6868 ft | 97 kts | 231° |
| 2026-05-05 11:54 | 51.88055 | 6.91741 | 6866 ft | 98 kts | 230° |
| 2026-05-05 11:54 | 51.87662 | 6.90823 | 6855 ft | 98 kts | 240° |
| 2026-05-05 11:55 | 51.87363 | 6.89842 | 6856 ft | 97 kts | 243° |
| 2026-05-05 11:55 | 51.87071 | 6.88842 | 6859 ft | 97 kts | 243° |
| 2026-05-05 11:55 | 51.86780 | 6.87841 | 6852 ft | 97 kts | 243° |
| 2026-05-05 11:55 | 51.86491 | 6.86855 | 6858 ft | 97 kts | 242° |
| 2026-05-05 11:56 | 51.86196 | 6.85854 | 6852 ft | 98 kts | 242° |
| 2026-05-05 11:56 | 51.85895 | 6.84867 | 6851 ft | 97 kts | 233° |
| 2026-05-05 11:56 | 51.85384 | 6.84173 | 6855 ft | 96 kts | 217° |
| 2026-05-05 11:56 | 51.85021 | 6.83264 | 6864 ft | 97 kts | 244° |
| 2026-05-05 11:57 | 51.84761 | 6.82261 | 6870 ft | 97 kts | 245° |
| 2026-05-05 11:57 | 51.84501 | 6.81246 | 6874 ft | 98 kts | 245° |
| 2026-05-05 11:57 | 51.84235 | 6.80232 | 6867 ft | 97 kts | 246° |
| 2026-05-05 11:57 | 51.83966 | 6.79229 | 6860 ft | 97 kts | 243° |
| 2026-05-05 11:58 | 51.83691 | 6.78214 | 6865 ft | 98 kts | 244° |
| 2026-05-05 11:58 | 51.83414 | 6.77208 | 6873 ft | 99 kts | 244° |
| 2026-05-05 11:58 | 51.83126 | 6.76160 | 6866 ft | 101 kts | 244° |
| 2026-05-05 11:58 | 51.82838 | 6.75119 | 6854 ft | 102 kts | 244° |
| 2026-05-05 11:59 | 51.82548 | 6.74079 | 6878 ft | 102 kts | 243° |
| 2026-05-05 11:59 | 51.82250 | 6.73010 | 6865 ft | 104 kts | 244° |
| 2026-05-05 11:59 | 51.81952 | 6.71944 | 6863 ft | 104 kts | 243° |
| 2026-05-05 11:59 | 51.81654 | 6.70886 | 6868 ft | 104 kts | 244° |
| 2026-05-05 12:00 | 51.81355 | 6.69820 | 6862 ft | 103 kts | 244° |
| 2026-05-05 12:00 | 51.81059 | 6.68766 | 6869 ft | 103 kts | 244° |
| 2026-05-05 12:00 | 51.80758 | 6.67702 | 6874 ft | 102 kts | 243° |
| 2026-05-05 12:00 | 51.80465 | 6.66665 | 6874 ft | 102 kts | 244° |
| 2026-05-05 12:01 | 51.80165 | 6.65606 | 6874 ft | 102 kts | 243° |
| 2026-05-05 12:01 | 51.79868 | 6.64564 | 6866 ft | 103 kts | 243° |
| 2026-05-05 12:01 | 51.79405 | 6.63706 | 6883 ft | 101 kts | 214° |
| 2026-05-05 12:01 | 51.78812 | 6.63058 | 6868 ft | 103 kts | 211° |
| 2026-05-05 12:02 | 51.78212 | 6.62440 | 6858 ft | 103 kts | 210° |
| 2026-05-05 12:02 | 51.77602 | 6.61822 | 6869 ft | 102 kts | 210° |
| 2026-05-05 12:02 | 51.76989 | 6.61206 | 6870 ft | 103 kts | 209° |
| 2026-05-05 12:02 | 51.76377 | 6.60600 | 6870 ft | 104 kts | 208° |
| 2026-05-05 12:03 | 51.75758 | 6.59987 | 6869 ft | 104 kts | 209° |
| 2026-05-05 12:03 | 51.75136 | 6.59376 | 6871 ft | 104 kts | 209° |
| 2026-05-05 12:03 | 51.74510 | 6.58763 | 6869 ft | 105 kts | 209° |
| 2026-05-05 12:03 | 51.73891 | 6.58157 | 6865 ft | 104 kts | 209° |
| 2026-05-05 12:04 | 51.73269 | 6.57552 | 6869 ft | 104 kts | 208° |
| 2026-05-05 12:04 | 51.72649 | 6.56949 | 6865 ft | 104 kts | 208° |
| 2026-05-05 12:04 | 51.72018 | 6.56357 | 6866 ft | 104 kts | 207° |
| 2026-05-05 12:04 | 51.71381 | 6.55779 | 6869 ft | 104 kts | 207° |
| 2026-05-05 12:05 | 51.70744 | 6.55214 | 6865 ft | 104 kts | 206° |
| 2026-05-05 12:05 | 51.70111 | 6.54654 | 6866 ft | 104 kts | 206° |
| 2026-05-05 12:05 | 51.69456 | 6.54128 | 6864 ft | 105 kts | 203° |
| 2026-05-05 12:05 | 51.68804 | 6.53613 | 6863 ft | 105 kts | 203° |
| 2026-05-05 12:06 | 51.68145 | 6.53078 | 6865 ft | 104 kts | 204° |
| 2026-05-05 12:06 | 51.67506 | 6.52553 | 6865 ft | 103 kts | 205° |
| 2026-05-05 12:06 | 51.66867 | 6.52023 | 6861 ft | 102 kts | 205° |
| 2026-05-05 12:06 | 51.66233 | 6.51493 | 6774 ft | 105 kts | 206° |
| 2026-05-05 12:07 | 51.65573 | 6.50937 | 6662 ft | 106 kts | 206° |
| 2026-05-05 12:07 | 51.64922 | 6.50387 | 6537 ft | 106 kts | 205° |
| 2026-05-05 12:07 | 51.64260 | 6.49830 | 6413 ft | 106 kts | 205° |
| 2026-05-05 12:07 | 51.63604 | 6.49281 | 6298 ft | 106 kts | 206° |
| 2026-05-05 12:08 | 51.62949 | 6.48735 | 6170 ft | 107 kts | 206° |
| 2026-05-05 12:08 | 51.62288 | 6.48179 | 6057 ft | 107 kts | 205° |
| 2026-05-05 12:08 | 51.61622 | 6.47621 | 5912 ft | 107 kts | 206° |
| 2026-05-05 12:08 | 51.60949 | 6.47071 | 5771 ft | 109 kts | 207° |
| 2026-05-05 12:09 | 51.60279 | 6.46506 | 5657 ft | 111 kts | 205° |
| 2026-05-05 12:09 | 51.59584 | 6.45927 | 5534 ft | 112 kts | 207° |
| 2026-05-05 12:09 | 51.58891 | 6.45346 | 5403 ft | 113 kts | 206° |
| 2026-05-05 12:09 | 51.58203 | 6.44777 | 5313 ft | 111 kts | 206° |
| 2026-05-05 12:10 | 51.57524 | 6.44213 | 5237 ft | 109 kts | 207° |
| 2026-05-05 12:10 | 51.56845 | 6.43646 | 5173 ft | 107 kts | 207° |
| 2026-05-05 12:10 | 51.56186 | 6.43099 | 5109 ft | 107 kts | 206° |
| 2026-05-05 12:10 | 51.55521 | 6.42544 | 5030 ft | 107 kts | 206° |
| 2026-05-05 12:11 | 51.54859 | 6.41995 | 4950 ft | 107 kts | 205° |
| 2026-05-05 12:11 | 51.54196 | 6.41439 | 4888 ft | 106 kts | 205° |
| 2026-05-05 12:11 | 51.53524 | 6.40884 | 4802 ft | 107 kts | 207° |
| 2026-05-05 12:11 | 51.52867 | 6.40341 | 4715 ft | 106 kts | 207° |
| 2026-05-05 12:12 | 51.52206 | 6.39787 | 4644 ft | 106 kts | 207° |
| 2026-05-05 12:12 | 51.51552 | 6.39245 | 4554 ft | 107 kts | 207° |
| 2026-05-05 12:12 | 51.50892 | 6.38701 | 4522 ft | 106 kts | 204° |
| 2026-05-05 12:12 | 51.50241 | 6.38154 | 4461 ft | 106 kts | 206° |
| 2026-05-05 12:13 | 51.49585 | 6.37614 | 4401 ft | 106 kts | 206° |
| 2026-05-05 12:13 | 51.48922 | 6.37061 | 4331 ft | 105 kts | 203° |
| 2026-05-05 12:13 | 51.48272 | 6.36522 | 4308 ft | 104 kts | 207° |
| 2026-05-05 12:13 | 51.47633 | 6.35992 | 4236 ft | 102 kts | 205° |
| 2026-05-05 12:14 | 51.47004 | 6.35475 | 4203 ft | 100 kts | 205° |
| 2026-05-05 12:14 | 51.46389 | 6.34964 | 4140 ft | 99 kts | 206° |
| 2026-05-05 12:14 | 51.45738 | 6.34808 | 4096 ft | 95 kts | 170° |
| 2026-05-05 12:14 | 51.45091 | 6.35009 | 4032 ft | 94 kts | 159° |
| 2026-05-05 12:15 | 51.44466 | 6.35293 | 3997 ft | 93 kts | 161° |
| 2026-05-05 12:15 | 51.43843 | 6.35594 | 3924 ft | 93 kts | 154° |
| 2026-05-05 12:15 | 51.43219 | 6.35913 | 3896 ft | 92 kts | 158° |
| 2026-05-05 12:15 | 51.42626 | 6.36228 | 3935 ft | 89 kts | 156° |
| 2026-05-05 12:16 | 51.42047 | 6.36536 | 3956 ft | 88 kts | 155° |
| 2026-05-05 12:16 | 51.41464 | 6.36853 | 3966 ft | 89 kts | 156° |
| 2026-05-05 12:16 | 51.40857 | 6.37179 | 3957 ft | 92 kts | 155° |
| 2026-05-05 12:16 | 51.40244 | 6.37506 | 3937 ft | 93 kts | 154° |
| 2026-05-05 12:17 | 51.39622 | 6.37843 | 3954 ft | 95 kts | 156° |
| 2026-05-05 12:17 | 51.38982 | 6.38178 | 3956 ft | 97 kts | 156° |
| 2026-05-05 12:17 | 51.38341 | 6.38521 | 3948 ft | 97 kts | 156° |
| 2026-05-05 12:17 | 51.37705 | 6.38861 | 3952 ft | 95 kts | 158° |
| 2026-05-05 12:18 | 51.37077 | 6.39203 | 3955 ft | 93 kts | 154° |
| 2026-05-05 12:18 | 51.36480 | 6.39607 | 3874 ft | 94 kts | 153° |
| 2026-05-05 12:18 | 51.35871 | 6.40036 | 3758 ft | 94 kts | 153° |
| 2026-05-05 12:18 | 51.35279 | 6.40450 | 3677 ft | 93 kts | 153° |
| 2026-05-05 12:19 | 51.34665 | 6.40783 | 3596 ft | 92 kts | 156° |
| 2026-05-05 12:19 | 51.34073 | 6.41134 | 3513 ft | 89 kts | 154° |
| 2026-05-05 12:19 | 51.33505 | 6.41501 | 3430 ft | 87 kts | 152° |
| 2026-05-05 12:19 | 51.32948 | 6.41884 | 3348 ft | 86 kts | 151° |
| 2026-05-05 12:20 | 51.32402 | 6.42270 | 3267 ft | 85 kts | 150° |
| 2026-05-05 12:20 | 51.31858 | 6.42665 | 3190 ft | 86 kts | 149° |
| 2026-05-05 12:20 | 51.31302 | 6.43072 | 3111 ft | 87 kts | 150° |
| 2026-05-05 12:20 | 51.30753 | 6.43476 | 3036 ft | 88 kts | 150° |
| 2026-05-05 12:21 | 51.30182 | 6.43899 | 2939 ft | 91 kts | 149° |
| 2026-05-05 12:21 | 51.29599 | 6.44328 | 2834 ft | 93 kts | 149° |
| 2026-05-05 12:21 | 51.29002 | 6.44770 | 2723 ft | 94 kts | 149° |
| 2026-05-05 12:21 | 51.28398 | 6.45216 | 2601 ft | 96 kts | 150° |
| 2026-05-05 12:22 | 51.27788 | 6.45665 | 2506 ft | 97 kts | 150° |
| 2026-05-05 12:22 | 51.27176 | 6.46117 | 2404 ft | 98 kts | 149° |
| 2026-05-05 12:22 | 51.26559 | 6.46576 | 2294 ft | 98 kts | 149° |
| 2026-05-05 12:22 | 51.25935 | 6.47038 | 2201 ft | 98 kts | 150° |
| 2026-05-05 12:23 | 51.25311 | 6.47497 | 2099 ft | 99 kts | 151° |
| 2026-05-05 12:23 | 51.24690 | 6.47963 | 1983 ft | 99 kts | 151° |
| 2026-05-05 12:23 | 51.24075 | 6.48411 | 1964 ft | 91 kts | 149° |
| 2026-05-05 12:23 | 51.23544 | 6.48856 | 1964 ft | 80 kts | 135° |
| 2026-05-05 12:24 | 51.23075 | 6.49320 | 1972 ft | 79 kts | 141° |
| 2026-05-05 12:24 | 51.22582 | 6.49767 | 1975 ft | 82 kts | 142° |
| 2026-05-05 12:24 | 51.22058 | 6.50169 | 1966 ft | 87 kts | 162° |
| 2026-05-05 12:24 | 51.21450 | 6.50058 | 1968 ft | 89 kts | 202° |
| 2026-05-05 12:25 | 51.20926 | 6.49564 | 1930 ft | 94 kts | 185° |
| 2026-05-05 12:25 | 51.20264 | 6.49729 | 1896 ft | 90 kts | 145° |
| 2026-05-05 12:25 | 51.19803 | 6.50347 | 1890 ft | 86 kts | 121° |
| 2026-05-05 12:25 | 51.19425 | 6.51095 | 1885 ft | 87 kts | 120° |
| 2026-05-05 12:26 | 51.19049 | 6.51851 | 1883 ft | 88 kts | 120° |
| 2026-05-05 12:26 | 51.18655 | 6.52604 | 1886 ft | 88 kts | 127° |
| 2026-05-05 12:26 | 51.18203 | 6.53289 | 1882 ft | 89 kts | 133° |
| 2026-05-05 12:26 | 51.17714 | 6.53905 | 1880 ft | 90 kts | 135° |
| 2026-05-05 12:27 | 51.17197 | 6.54483 | 1874 ft | 90 kts | 140° |
| 2026-05-05 12:27 | 51.16668 | 6.55032 | 1885 ft | 90 kts | 141° |
| 2026-05-05 12:27 | 51.16132 | 6.55558 | 1880 ft | 90 kts | 142° |
| 2026-05-05 12:27 | 51.15596 | 6.56069 | 1878 ft | 88 kts | 143° |
| 2026-05-05 12:28 | 51.15073 | 6.56556 | 1876 ft | 85 kts | 143° |
| 2026-05-05 12:28 | 51.14576 | 6.57017 | 1876 ft | 81 kts | 142° |
| 2026-05-05 12:28 | 51.14091 | 6.57465 | 1875 ft | 78 kts | 142° |
| 2026-05-05 12:28 | 51.13616 | 6.57911 | 1882 ft | 82 kts | 142° |
| 2026-05-05 12:29 | 51.13109 | 6.58383 | 1883 ft | 85 kts | 143° |
| 2026-05-05 12:29 | 51.12585 | 6.58861 | 1882 ft | 87 kts | 143° |
| 2026-05-05 12:29 | 51.12075 | 6.59382 | 1883 ft | 86 kts | 133° |
| 2026-05-05 12:29 | 51.11676 | 6.60086 | 1882 ft | 85 kts | 116° |
| 2026-05-05 12:30 | 51.11420 | 6.60924 | 1882 ft | 83 kts | 100° |
| 2026-05-05 12:30 | 51.11321 | 6.61810 | 1881 ft | 81 kts | 85° |
| 2026-05-05 12:30 | 51.11374 | 6.62697 | 1879 ft | 80 kts | 70° |
| 2026-05-05 12:30 | 51.11576 | 6.63530 | 1879 ft | 79 kts | 56° |
| 2026-05-05 12:31 | 51.11904 | 6.64237 | 1876 ft | 79 kts | 41° |
| 2026-05-05 12:31 | 51.12328 | 6.64772 | 1875 ft | 78 kts | 28° |
| 2026-05-05 12:31 | 51.12826 | 6.65116 | 1872 ft | 76 kts | 15° |
| 2026-05-05 12:31 | 51.13340 | 6.65244 | 1872 ft | 74 kts | 1° |
| 2026-05-05 12:32 | 51.13814 | 6.65022 | 1874 ft | 72 kts | 320° |
| 2026-05-05 12:32 | 51.14112 | 6.64345 | 1886 ft | 79 kts | 303° |
| 2026-05-05 12:32 | 51.14435 | 6.63591 | 1878 ft | 83 kts | 325° |
| 2026-05-05 12:32 | 51.14957 | 6.63238 | 1877 ft | 82 kts | 347° |
| 2026-05-05 12:33 | 51.15458 | 6.62774 | 1886 ft | 84 kts | 339° |
| 2026-05-05 12:33 | 51.16004 | 6.62425 | 1894 ft | 88 kts | 327° |
| 2026-05-05 12:33 | 51.16371 | 6.61642 | 1886 ft | 88 kts | 304° |
| 2026-05-05 12:33 | 51.16755 | 6.60938 | 1878 ft | 81 kts | 337° |
| 2026-05-05 12:34 | 51.17273 | 6.60674 | 1876 ft | 73 kts | 349° |
| 2026-05-05 12:34 | 51.17745 | 6.60494 | 1869 ft | 67 kts | 345° |
| 2026-05-05 12:34 | 51.18104 | 6.60068 | 1870 ft | 65 kts | 304° |
| 2026-05-05 12:34 | 51.18269 | 6.59410 | 1880 ft | 63 kts | 296° |
| 2026-05-05 12:35 | 51.18520 | 6.58895 | 1871 ft | 56 kts | 322° |
| 2026-05-05 12:35 | 51.18867 | 6.58350 | 1636 ft | 86 kts | 304° |
| 2026-05-05 12:35 | 51.19247 | 6.57519 | 1361 ft | 89 kts | 300° |
| 2026-05-05 12:35 | 51.19601 | 6.56756 | 1184 ft | 86 kts | 310° |
| 2026-05-05 12:36 | 51.19950 | 6.56034 | 1055 ft | 77 kts | 311° |
| 2026-05-05 12:36 | 51.20343 | 6.55507 | 957 ft | 68 kts | 323° |
| 2026-05-05 12:36 | 51.20670 | 6.55034 | 888 ft | 64 kts | 315° |
| 2026-05-05 12:36 | 51.20986 | 6.54509 | 735 ft | 68 kts | 300° |
| 2026-05-05 12:37 | 51.21260 | 6.53904 | 609 ft | 66 kts | 296° |
| 2026-05-05 12:37 | 51.21535 | 6.53389 | 534 ft | 56 kts | 314° |
| 2026-05-05 12:37 | 51.21792 | 6.52910 | 437 ft | 57 kts | 299° |
| 2026-05-05 12:37 | 51.22053 | 6.52417 | 331 ft | 57 kts | 300° |
| 2026-05-05 12:38 | 51.22298 | 6.51921 | 238 ft | 56 kts | 299° |
| 2026-05-05 12:38 | 51.22536 | 6.51448 | 163 ft | 52 kts | 300° |
| 2026-05-05 12:38 | 51.22745 | 6.51010 | 123 ft | 49 kts | 298° |
| 2026-05-05 12:38 | 51.22945 | 6.50630 | 123 ft | 41 kts | 308° |
| 2026-05-05 12:39 | 51.23103 | 6.50319 | 122 ft | 23 kts | 307° |
| 2026-05-05 12:39 | 51.23093 | 6.50157 | 122 ft | 13 kts | 219° |
| 2026-05-05 12:39 | 51.23084 | 6.50146 | 122 ft | 0 kts | 220° |
| 2026-05-05 12:40 | 51.23064 | 6.50108 | 122 ft | 9 kts | 227° |
| 2026-05-05 12:41 | 51.23013 | 6.50127 | 122 ft | 9 kts | 128° |
| 2026-05-05 12:41 | 51.22972 | 6.50206 | 122 ft | 3 kts | 131° |
| 2026-05-05 12:41 | 51.22943 | 6.50219 | 122 ft | 5 kts | 222° |
| 2026-05-05 12:41 | 51.22910 | 6.50228 | 122 ft | 7 kts | 127° |
| 2026-05-05 12:42 | 51.22880 | 6.50304 | 122 ft | 3 kts | 85° |
| 2026-05-05 12:42 | 51.22874 | 6.50312 | 122 ft | 5 kts | 146° |
| 2026-05-05 12:42 | 51.22883 | 6.50381 | 122 ft | 8 kts | 38° |
| 2026-05-05 12:42 | 51.22890 | 6.50391 | 122 ft | 0 kts | 39° |